Kalkaska, Michigan
Current Conditions -  °F | °C
As of 1:35 PM on Thursday 30 Oct 2014 (Local Time) from KACB Reporting Station
Overcast Overcast  
Wind Chill: 44°   Ceiling: 1600
Heat Index: 46°   Visibility: 10mi
Dew Point: 39°   Wind: 5mph
Humidity: 76%   Direction: 220°SW
Pressure: 30.05"   Gusts: NA
Location:  44.73°N, 85.18°W
Report Text: KACB 301735Z AUTO 22004KT 10SM BKN016 BKN023 OVC037 08/04 A3005 RMK AO2 T00790040
Loading
Personal Weather Stations






























Interactive Weather Map
Tropical Storm Tracking
New forecast layout! Learn more

10-Day Weather Forecast

Advertisements
Track Severe Weather on mobile